Time;durP1;ratioP1;P1;durP2;ratioP2;P2;SDS_P1;SDS_P2;PMS_P1;PMS_P2;Temp;Humidity;BMP_temperature;BMP_pressure;BME280_temperature;BME280_humidity;BME280_pressure;Samples;Min_cycle;Max_cycle;Signal;HPM_P1;HPM_P2
2022/08/28 00:00:15;;;;;;;8.48;5.38;;;17.50;99.90;;;;;;5052688;28;20053;-47
2022/08/28 00:02:42;;;;;;;6.72;4.15;;;17.60;99.90;;;;;;5053391;28;20032;-47
2022/08/28 00:05:10;;;;;;;;;;;17.50;99.90;;;;;;5051368;28;20098;-47
2022/08/28 00:07:37;;;;;;;8.68;4.60;;;17.60;99.90;;;;;;5045535;28;19920;-47
2022/08/28 00:10:06;;;;;;;18.88;6.40;;;17.50;99.90;;;;;;5051721;28;20045;-48
2022/08/28 00:12:34;;;;;;;292.33;15.55;;;17.50;99.90;;;;;;5044887;28;20036;-48
2022/08/28 00:15:29;;;;;;;39.67;7.05;;;17.50;99.90;;;;;;5051677;28;20409;-53
2022/08/28 00:17:56;;;;;;;40.90;7.05;;;17.40;99.90;;;;;;5040893;28;20056;-49
2022/08/28 00:20:27;;;;;;;38.80;6.78;;;17.40;99.90;;;;;;5048767;28;20468;-47
2022/08/28 00:22:55;;;;;;;49.60;7.40;;;17.40;99.90;;;;;;5052478;28;20129;-48
2022/08/28 00:25:25;;;;;;;12.77;7.30;;;17.40;99.90;;;;;;5047212;28;20048;-48
2022/08/28 00:27:56;;;;;;;13.20;7.28;;;17.40;99.90;;;;;;5049910;28;20041;-49
2022/08/28 00:30:36;;;;;;;15.38;8.98;;;17.40;99.90;;;;;;5022156;28;20045;-49
2022/08/28 00:33:07;;;;;;;17.20;10.80;;;17.40;99.90;;;;;;5043791;28;20394;-49
2022/08/28 00:35:39;;;;;;;17.38;10.85;;;17.40;99.90;;;;;;5044785;28;20410;-48
2022/08/28 00:38:08;;;;;;;18.23;10.80;;;17.40;99.90;;;;;;5049429;28;20513;-47
2022/08/28 00:40:38;;;;;;;17.92;9.45;;;17.40;99.90;;;;;;5042652;28;20036;-48
2022/08/28 00:43:07;;;;;;;16.27;10.38;;;17.40;99.90;;;;;;5050977;28;20064;-48
2022/08/28 00:45:35;;;;;;;13.68;8.75;;;17.40;99.90;;;;;;5050913;28;20036;-50
2022/08/28 00:48:06;;;;;;;16.23;9.02;;;17.50;99.90;;;;;;5052780;28;20128;-49
2022/08/28 00:52:04;;;;;;;;;;;17.50;99.90;;;;;;5051285;28;20044;-49
2022/08/28 00:53:26;;;;;;;11.80;7.70;;;17.50;99.90;;;;;;5052256;28;20450;-53
2022/08/28 00:56:00;;;;;;;12.80;7.68;;;17.50;99.90;;;;;;5051132;28;20049;-52
2022/08/28 00:58:30;;;;;;;11.82;7.57;;;17.50;99.90;;;;;;5051750;28;20416;-50
2022/08/28 01:00:58;;;;;;;12.13;7.32;;;17.50;99.90;;;;;;5042790;28;20539;-49
2022/08/28 01:03:27;;;;;;;8.43;5.90;;;17.60;99.90;;;;;;5052597;28;20041;-48
2022/08/28 01:05:54;;;;;;;8.63;6.30;;;17.50;99.90;;;;;;5044211;28;20128;-51
2022/08/28 01:08:20;;;;;;;11.27;5.95;;;17.50;99.90;;;;;;5052426;28;20033;-49
2022/08/28 01:10:54;;;;;;;12.63;5.90;;;17.50;99.90;;;;;;5049805;28;20045;-48
2022/08/28 01:13:22;;;;;;;8.15;5.35;;;17.50;99.90;;;;;;5052361;28;20037;-51
2022/08/28 01:15:50;;;;;;;7.70;5.50;;;17.50;99.90;;;;;;5040589;28;20049;-48
2022/08/28 01:18:18;;;;;;;13.73;5.35;;;17.60;99.90;;;;;;5050447;28;20060;-47
2022/08/28 01:20:57;;;;;;;9.25;5.63;;;17.50;99.90;;;;;;5050787;28;20045;-49
2022/08/28 01:23:36;;;;;;;9.10;5.97;;;17.50;99.90;;;;;;5050462;28;20481;-50
2022/08/28 01:26:03;;;;;;;14.10;6.53;;;17.60;99.90;;;;;;5051271;28;20087;-51
2022/08/28 01:28:38;;;;;;;9.13;5.85;;;17.50;99.90;;;;;;5051116;28;20045;-48
2022/08/28 01:31:08;;;;;;;11.00;5.93;;;17.50;99.90;;;;;;5050963;28;20386;-50
2022/08/28 01:33:36;;;;;;;12.00;7.32;;;17.50;99.90;;;;;;5042165;28;20052;-50
2022/08/28 01:36:09;;;;;;;9.35;6.18;;;17.40;99.90;;;;;;5051061;28;20037;-48
2022/08/28 01:38:37;;;;;;;11.25;5.97;;;17.40;99.90;;;;;;5050936;28;20112;-48
2022/08/28 01:41:04;;;;;;;11.70;6.95;;;17.40;99.90;;;;;;5043319;28;20040;-49
2022/08/28 01:43:31;;;;;;;10.25;6.72;;;17.40;99.90;;;;;;5042139;28;20056;-48
2022/08/28 01:46:00;;;;;;;10.63;6.25;;;17.40;99.90;;;;;;5051028;28;20044;-52
2022/08/28 01:48:30;;;;;;;8.98;5.57;;;17.40;99.90;;;;;;5047888;28;20099;-49
2022/08/28 01:50:57;;;;;;;7.00;4.85;;;17.40;99.90;;;;;;5043673;28;20033;-48
2022/08/28 01:53:25;;;;;;;11.90;6.70;;;17.40;99.90;;;;;;5050508;28;20033;-48
2022/08/28 01:56:01;;;;;;;10.40;6.18;;;17.40;99.90;;;;;;5044401;28;20041;-47
2022/08/28 01:58:30;;;;;;;10.77;5.95;;;17.40;99.90;;;;;;5049881;28;20048;-48
2022/08/28 02:01:14;;;;;;;9.52;5.80;;;17.40;99.90;;;;;;5050888;28;20045;-48
2022/08/28 02:03:44;;;;;;;33.92;7.47;;;17.40;99.90;;;;;;5050150;28;20497;-52
2022/08/28 02:06:12;;;;;;;38.80;7.22;;;17.40;99.90;;;;;;5049653;28;20386;-50
2022/08/28 02:08:38;;;;;;;12.57;6.60;;;17.40;99.90;;;;;;5050539;28;20044;-47
2022/08/28 02:11:07;;;;;;;43.55;6.80;;;17.40;99.90;;;;;;5051111;28;20770;-49
2022/08/28 02:13:35;;;;;;;53.40;8.57;;;17.30;99.90;;;;;;5049718;28;20429;-51
2022/08/28 02:16:05;;;;;;;57.65;8.40;;;17.30;99.90;;;;;;5042602;28;20060;-50
2022/08/28 02:18:32;;;;;;;16.15;6.80;;;17.30;99.90;;;;;;5042301;28;20115;-49
2022/08/28 02:20:58;;;;;;;15.90;7.72;;;17.40;99.90;;;;;;5050938;28;20040;-47
2022/08/28 02:23:26;;;;;;;14.80;6.63;;;17.30;99.90;;;;;;5049139;28;20236;-47
2022/08/28 02:25:52;;;;;;;10.25;6.25;;;17.30;99.90;;;;;;5050403;28;20522;-49
2022/08/28 02:28:19;;;;;;;10.70;5.93;;;17.30;99.90;;;;;;5049327;28;20048;-51
2022/08/28 02:30:46;;;;;;;9.10;5.53;;;17.30;99.90;;;;;;5051179;28;20048;-53
2022/08/28 02:33:14;;;;;;;8.98;5.68;;;17.30;99.90;;;;;;5048445;28;20060;-49
2022/08/28 02:35:42;;;;;;;8.63;5.03;;;17.30;99.90;;;;;;5032848;28;20408;-52
2022/08/28 02:38:09;;;;;;;8.52;5.10;;;17.30;99.90;;;;;;5049978;28;20041;-50
2022/08/28 02:40:37;;;;;;;7.30;4.82;;;17.30;99.90;;;;;;5041961;28;20043;-51
2022/08/28 02:43:04;;;;;;;7.57;4.95;;;17.20;99.90;;;;;;5049527;28;20064;-49
2022/08/28 02:45:31;;;;;;;6.57;5.18;;;17.20;99.90;;;;;;5049385;28;20049;-47
2022/08/28 02:48:00;;;;;;;11.07;5.20;;;17.20;99.90;;;;;;5049568;28;20041;-47
2022/08/28 02:50:28;;;;;;;10.25;4.50;;;17.20;99.90;;;;;;5048539;28;20048;-51
2022/08/28 02:52:56;;;;;;;7.70;4.30;;;17.20;99.90;;;;;;5049924;28;20053;-49
2022/08/28 02:55:23;;;;;;;;;;;17.20;99.90;;;;;;5049367;28;20044;-50
2022/08/28 02:57:51;;;;;;;6.22;3.53;;;17.20;99.90;;;;;;5050451;28;19925;-48
2022/08/28 03:00:22;;;;;;;5.00;3.50;;;17.20;99.90;;;;;;5049895;28;20396;-48
2022/08/28 03:02:51;;;;;;;4.53;3.30;;;17.20;99.90;;;;;;5050244;28;20033;-47
2022/08/28 03:05:21;;;;;;;6.43;3.85;;;17.20;99.90;;;;;;5047961;28;20579;-48
2022/08/28 03:07:49;;;;;;;3.97;3.30;;;17.20;99.90;;;;;;5050848;28;20041;-48
2022/08/28 03:10:16;;;;;;;10.60;4.57;;;17.20;99.90;;;;;;5041498;28;20045;-52
2022/08/28 03:12:43;;;;;;;5.05;3.15;;;17.20;99.90;;;;;;5050422;28;20098;-52
2022/08/28 03:15:10;;;;;;;4.75;3.53;;;17.20;99.90;;;;;;5042939;28;20053;-49
2022/08/28 03:17:37;;;;;;;;;;;17.20;99.90;;;;;;5051197;28;20041;-51
2022/08/28 03:20:06;;;;;;;5.13;3.17;;;17.10;99.90;;;;;;5049261;28;20443;-49
2022/08/28 03:25:21;;;;;;;6.63;2.35;;;17.10;99.90;;;;;;5041004;28;20048;-48
2022/08/28 03:27:48;;;;;;;5.68;2.72;;;17.10;99.90;;;;;;5050334;28;20037;-52
2022/08/28 03:30:15;;;;;;;;;;;17.10;99.90;;;;;;5049983;28;20037;-49
2022/08/28 03:32:41;;;;;;;5.35;2.85;;;17.10;99.90;;;;;;5049016;28;19925;-48
2022/08/28 03:35:09;;;;;;;4.35;2.70;;;17.10;99.90;;;;;;5049557;28;20505;-52
2022/08/28 03:37:35;;;;;;;;;;;17.10;99.90;;;;;;5050620;28;20056;-52
2022/08/28 03:40:03;;;;;;;3.92;3.33;;;17.10;99.90;;;;;;5049920;28;19975;-50
2022/08/28 03:42:30;;;;;;;6.05;3.13;;;17.10;99.90;;;;;;5048062;28;20420;-48
2022/08/28 03:44:58;;;;;;;4.68;3.45;;;17.00;99.90;;;;;;5049179;28;20044;-49
2022/08/28 03:47:27;;;;;;;7.38;4.72;;;17.10;99.90;;;;;;5049731;28;20041;-50
2022/08/28 03:49:56;;;;;;;7.10;4.18;;;17.10;99.90;;;;;;5049984;28;20447;-49
2022/08/28 03:52:23;;;;;;;3.95;3.10;;;17.10;99.90;;;;;;5045937;28;20041;-49
2022/08/28 03:54:50;;;;;;;4.90;3.63;;;17.10;99.90;;;;;;5049358;28;20037;-47
2022/08/28 03:57:19;;;;;;;5.10;3.88;;;17.10;99.90;;;;;;5040752;28;20053;-47
2022/08/28 03:59:47;;;;;;;3.40;2.88;;;17.10;99.90;;;;;;5048833;28;20049;-48
2022/08/28 04:02:17;;;;;;;4.35;2.75;;;17.10;99.90;;;;;;5052939;28;20099;-48
2022/08/28 04:04:45;;;;;;;3.13;2.47;;;17.10;99.90;;;;;;5052673;28;20041;-47
2022/08/28 04:07:12;;;;;;;3.33;2.47;;;17.00;99.90;;;;;;5052941;28;20117;-49
2022/08/28 04:09:39;;;;;;;3.65;2.72;;;17.00;99.90;;;;;;5052041;28;20060;-51
2022/08/28 04:12:07;;;;;;;4.75;2.50;;;17.00;99.90;;;;;;5053159;28;20493;-50
2022/08/28 04:14:34;;;;;;;4.20;2.15;;;17.00;99.90;;;;;;5052681;28;20512;-51
2022/08/28 04:17:02;;;;;;;4.88;2.17;;;17.00;99.90;;;;;;5052304;28;20045;-48
2022/08/28 04:19:29;;;;;;;3.53;2.22;;;17.00;99.90;;;;;;5053171;28;20110;-50
2022/08/28 04:21:55;;;;;;;2.53;2.17;;;17.00;99.90;;;;;;5052990;28;20390;-49
2022/08/28 04:24:22;;;;;;;4.57;2.33;;;16.90;99.90;;;;;;5051459;28;20044;-50
2022/08/28 04:26:49;;;;;;;3.85;2.30;;;16.90;99.90;;;;;;5053065;28;20044;-50
2022/08/28 04:29:16;;;;;;;2.63;2.30;;;17.00;99.90;;;;;;5050640;28;20057;-49
2022/08/28 04:31:43;;;;;;;;;;;16.90;99.90;;;;;;5052225;28;20064;-51
2022/08/28 04:34:10;;;;;;;2.97;1.73;;;16.90;99.90;;;;;;5050533;28;19932;-50
2022/08/28 04:36:37;;;;;;;4.65;2.42;;;16.90;99.90;;;;;;5053058;28;20507;-50
2022/08/28 04:39:07;;;;;;;6.32;2.17;;;17.00;99.90;;;;;;5047178;28;20053;-50
2022/08/28 04:41:36;;;;;;;2.20;2.00;;;17.00;99.90;;;;;;5027676;28;20040;-50
2022/08/28 04:44:03;;;;;;;4.18;2.10;;;17.00;99.90;;;;;;5052642;28;20560;-49
2022/08/28 04:46:31;;;;;;;2.63;1.90;;;17.00;99.90;;;;;;5048946;28;20585;-49
2022/08/28 04:48:58;;;;;;;3.95;2.05;;;17.00;99.90;;;;;;5052206;28;20045;-50
2022/08/28 04:51:25;;;;;;;;;;;17.00;99.90;;;;;;5052744;28;20045;-49
2022/08/28 04:53:52;;;;;;;4.45;2.83;;;17.00;99.90;;;;;;5052869;28;20531;-49
2022/08/28 04:56:18;;;;;;;2.47;2.05;;;17.00;99.90;;;;;;5051350;28;20405;-51
2022/08/28 04:58:45;;;;;;;2.80;2.00;;;17.00;99.90;;;;;;5052860;28;20048;-50
2022/08/28 05:01:18;;;;;;;2.60;1.88;;;17.10;99.90;;;;;;5044591;28;20045;-50
2022/08/28 05:03:47;;;;;;;2.38;2.00;;;17.00;99.90;;;;;;5052515;28;20041;-50
2022/08/28 05:06:15;;;;;;;2.80;1.58;;;17.10;99.90;;;;;;5050835;28;20051;-50
2022/08/28 05:08:42;;;;;;;2.95;1.65;;;17.10;99.90;;;;;;5052728;28;20049;-49
2022/08/28 05:11:30;;;;;;;2.13;1.60;;;17.10;99.90;;;;;;5050935;28;20400;-49
2022/08/28 05:14:05;;;;;;;3.08;1.58;;;17.10;99.90;;;;;;5047968;28;20037;-49
2022/08/28 05:16:41;;;;;;;2.05;1.60;;;17.20;99.90;;;;;;5037260;28;20044;-49
2022/08/28 05:19:09;;;;;;;2.28;1.90;;;17.30;99.90;;;;;;5052628;28;20048;-49
2022/08/28 05:21:35;;;;;;;;;;;17.30;99.90;;;;;;5052562;28;20041;-50
2022/08/28 05:24:03;;;;;;;3.47;1.63;;;17.30;99.90;;;;;;5050129;28;19920;-50
2022/08/28 05:26:31;;;;;;;3.13;1.63;;;17.40;99.90;;;;;;5048086;28;20037;-49
2022/08/28 05:28:58;;;;;;;7.82;1.60;;;17.50;99.90;;;;;;5048039;28;20037;-49
2022/08/28 05:31:27;;;;;;;2.03;1.60;;;17.50;99.90;;;;;;5049967;28;20055;-50
2022/08/28 05:33:54;;;;;;;5.45;1.92;;;17.50;99.90;;;;;;5051724;28;20471;-50
2022/08/28 05:36:22;;;;;;;2.00;1.65;;;17.50;99.90;;;;;;5050423;28;20041;-52
2022/08/28 05:38:56;;;;;;;4.90;1.40;;;17.60;99.90;;;;;;5052219;28;20041;-49
2022/08/28 05:41:29;;;;;;;4.18;2.20;;;17.60;99.90;;;;;;5050329;28;20489;-49
2022/08/28 05:44:01;;;;;;;3.95;1.90;;;17.60;99.90;;;;;;5046837;28;20041;-49
2022/08/28 05:46:28;;;;;;;1.83;1.60;;;17.60;99.90;;;;;;5049905;28;20037;-49
2022/08/28 05:48:56;;;;;;;2.38;1.52;;;17.60;99.90;;;;;;5046863;28;20049;-49
2022/08/28 05:51:25;;;;;;;2.70;1.30;;;17.60;99.90;;;;;;5051205;28;20041;-48
2022/08/28 05:53:54;;;;;;;2.47;1.50;;;17.70;99.90;;;;;;5050998;28;20072;-49
2022/08/28 05:56:28;;;;;;;1.50;1.40;;;17.70;99.90;;;;;;5046026;28;20037;-49
2022/08/28 05:58:59;;;;;;;2.38;1.33;;;17.80;99.90;;;;;;5044743;28;20091;-51
2022/08/28 06:01:31;;;;;;;3.00;1.65;;;17.80;99.90;;;;;;5050940;28;20383;-49
2022/08/28 06:04:17;;;;;;;5.57;1.33;;;17.80;99.90;;;;;;5050693;28;20099;-50
2022/08/28 06:06:45;;;;;;;2.95;1.40;;;17.80;99.90;;;;;;5050592;28;20077;-49
2022/08/28 06:09:15;;;;;;;4.45;1.70;;;17.80;99.90;;;;;;5051319;28;20045;-49
2022/08/28 06:11:43;;;;;;;1.92;1.52;;;17.80;99.90;;;;;;5050786;28;20390;-50
2022/08/28 06:14:15;;;;;;;1.45;1.30;;;17.80;99.90;;;;;;5044899;28;20052;-52
2022/08/28 06:16:46;;;;;;;2.20;1.42;;;17.80;99.90;;;;;;5051565;28;20045;-50
2022/08/28 06:19:13;;;;;;;3.35;1.88;;;17.80;99.90;;;;;;5051406;28;20405;-49
2022/08/28 06:21:40;;;;;;;;;;;17.90;99.90;;;;;;5051508;28;20052;-49
2022/08/28 06:24:08;;;;;;;1.85;1.60;;;18.00;99.90;;;;;;5044701;28;19951;-48
2022/08/28 06:26:35;;;;;;;1.80;1.55;;;18.00;99.90;;;;;;5047958;28;20405;-49
2022/08/28 06:29:08;;;;;;;2.13;1.77;;;18.00;99.90;;;;;;5050268;28;20064;-50
2022/08/28 06:31:35;;;;;;;1.70;1.60;;;18.10;99.90;;;;;;5050906;28;20048;-49
2022/08/28 06:34:08;;;;;;;2.47;1.88;;;18.10;99.90;;;;;;5042134;28;20161;-53
2022/08/28 06:36:40;;;;;;;2.55;2.17;;;18.20;99.90;;;;;;5043102;28;20037;-49
2022/08/28 06:39:09;;;;;;;7.45;1.90;;;18.30;99.90;;;;;;5051058;28;20041;-51
2022/08/28 06:41:41;;;;;;;4.03;1.95;;;18.30;99.90;;;;;;5050427;28;20037;-52
2022/08/28 06:44:11;;;;;;;2.10;1.90;;;18.40;99.90;;;;;;5049629;28;20045;-48
2022/08/28 06:46:38;;;;;;;3.90;1.77;;;18.50;99.90;;;;;;5050545;28;20041;-52
2022/08/28 06:49:06;;;;;;;;;;;18.60;99.90;;;;;;5044142;28;20048;-49
2022/08/28 06:51:33;;;;;;;2.03;1.70;;;18.70;99.90;;;;;;5042736;28;19935;-49
2022/08/28 06:54:01;;;;;;;4.38;1.80;;;18.80;99.90;;;;;;5046682;28;20040;-51
2022/08/28 06:56:28;;;;;;;2.05;1.77;;;18.90;99.90;;;;;;5050964;28;20392;-49
2022/08/28 06:58:56;;;;;;;2.40;2.10;;;19.00;99.90;;;;;;5042695;28;20052;-51
2022/08/28 07:01:27;;;;;;;5.78;2.25;;;19.10;99.90;;;;;;5050557;28;20041;-52
2022/08/28 07:03:58;;;;;;;3.13;2.38;;;19.20;99.90;;;;;;5050329;28;20421;-51
2022/08/28 07:06:25;;;;;;;2.80;2.20;;;19.30;99.90;;;;;;5027475;28;20046;-50
2022/08/28 07:08:52;;;;;;;;;;;19.30;99.90;;;;;;5050390;28;20045;-49
2022/08/28 07:11:27;;;;;;;6.38;2.90;;;19.40;99.90;;;;;;5050626;28;19925;-49
2022/08/28 07:13:55;;;;;;;3.75;2.30;;;19.50;99.90;;;;;;5048562;28;20417;-49
2022/08/28 07:16:25;;;;;;;5.90;2.35;;;19.70;99.90;;;;;;5051200;28;20401;-51
2022/08/28 07:18:53;;;;;;;2.20;2.00;;;19.90;99.90;;;;;;5050477;28;20403;-50
2022/08/28 07:21:19;;;;;;;3.90;2.13;;;19.90;99.90;;;;;;5050464;28;20041;-50
2022/08/28 07:23:47;;;;;;;4.35;2.35;;;20.10;99.90;;;;;;5046448;28;20053;-50
2022/08/28 07:26:19;;;;;;;3.80;2.38;;;20.20;99.90;;;;;;5048495;28;20044;-51
2022/08/28 07:28:46;;;;;;;2.58;2.38;;;20.20;99.90;;;;;;5050546;28;20044;-49
2022/08/28 07:31:19;;;;;;;2.90;2.50;;;20.20;99.90;;;;;;5033243;28;20049;-51
2022/08/28 07:33:46;;;;;;;3.70;2.85;;;20.30;99.90;;;;;;5049811;28;20059;-50
2022/08/28 07:36:24;;;;;;;2.90;2.33;;;20.30;99.90;;;;;;5047146;28;20059;-49
2022/08/28 07:38:58;;;;;;;3.60;2.50;;;20.40;99.90;;;;;;5049501;28;20075;-53
2022/08/28 07:41:29;;;;;;;2.75;2.00;;;20.40;99.90;;;;;;5046222;28;20092;-49
2022/08/28 07:46:43;;;;;;;2.15;1.95;;;20.50;99.90;;;;;;5031725;28;20041;-49
2022/08/28 07:49:14;;;;;;;2.42;2.22;;;20.50;99.90;;;;;;5052441;28;20525;-49
2022/08/28 07:51:41;;;;;;;2.60;2.40;;;20.50;99.90;;;;;;5054354;28;20048;-49
2022/08/28 07:54:08;;;;;;;5.47;2.75;;;20.50;99.90;;;;;;5053196;28;20044;-49
2022/08/28 07:56:44;;;;;;;2.70;2.03;;;20.60;99.90;;;;;;5053938;28;20041;-50
2022/08/28 07:59:11;;;;;;;;;;;20.60;99.90;;;;;;5052927;28;20052;-49
2022/08/28 08:01:43;;;;;;;2.25;2.00;;;20.70;99.90;;;;;;5045856;28;20020;-50
2022/08/28 08:04:12;;;;;;;2.28;2.08;;;20.70;99.90;;;;;;5046914;28;20041;-49
2022/08/28 08:06:40;;;;;;;4.13;2.00;;;20.70;99.90;;;;;;5045947;28;20109;-49
2022/08/28 08:09:10;;;;;;;2.42;2.10;;;20.70;99.90;;;;;;5048075;28;20041;-50
2022/08/28 08:11:37;;;;;;;1.77;1.67;;;20.70;99.90;;;;;;5050176;28;20041;-50
2022/08/28 08:14:04;;;;;;;1.73;1.50;;;20.90;99.90;;;;;;5052643;28;20056;-52
2022/08/28 08:16:34;;;;;;;1.95;1.70;;;21.10;99.90;;;;;;5045359;28;20033;-50
2022/08/28 08:19:01;;;;;;;2.00;1.80;;;21.40;99.90;;;;;;5053933;28;20405;-49
2022/08/28 08:21:28;;;;;;;1.63;1.52;;;21.40;99.90;;;;;;5053933;28;20048;-49
2022/08/28 08:23:57;;;;;;;2.03;1.80;;;21.40;99.90;;;;;;5047719;28;20077;-50
2022/08/28 08:26:26;;;;;;;1.73;1.63;;;21.30;99.90;;;;;;5046842;28;20073;-49
2022/08/28 08:28:55;;;;;;;3.17;1.98;;;21.30;99.90;;;;;;5050865;28;20135;-49
2022/08/28 08:31:32;;;;;;;2.50;2.30;;;21.20;99.90;;;;;;5046851;28;20044;-50
2022/08/28 08:34:03;;;;;;;2.70;1.80;;;21.20;99.90;;;;;;5051294;28;20048;-50
2022/08/28 08:36:32;;;;;;;2.90;2.10;;;21.40;99.90;;;;;;5048348;28;20513;-49
2022/08/28 08:38:59;;;;;;;2.92;2.03;;;21.60;99.90;;;;;;5050968;28;20052;-51
2022/08/28 08:41:46;;;;;;;2.33;1.85;;;21.70;99.90;;;;;;5050748;28;20057;-50
2022/08/28 08:44:43;;;;;;;2.30;2.10;;;21.90;99.90;;;;;;5031445;28;20129;-51
2022/08/28 08:47:18;;;;;;;2.30;2.10;;;22.20;99.90;;;;;;5034709;28;20048;-50
2022/08/28 08:49:58;;;;;;;2.40;2.00;;;22.50;99.90;;;;;;5051511;28;20033;-50
2022/08/28 08:52:48;;;;;;;2.70;2.33;;;22.60;99.90;;;;;;5052424;28;20103;-49
2022/08/28 08:55:22;;;;;;;2.92;2.38;;;22.60;99.90;;;;;;5052434;28;20045;-49
2022/08/28 08:58:06;;;;;;;2.40;2.20;;;22.40;99.90;;;;;;5052159;28;20111;-49
2022/08/28 09:00:43;;;;;;;4.53;2.30;;;22.40;99.90;;;;;;5051545;28;20049;-49
2022/08/28 09:03:24;;;;;;;5.05;2.30;;;22.60;99.90;;;;;;5052439;28;20051;-51
2022/08/28 09:05:58;;;;;;;2.38;1.90;;;22.60;99.90;;;;;;5043906;28;20520;-49
2022/08/28 09:08:38;;;;;;;3.35;2.15;;;22.60;99.90;;;;;;5052294;28;20508;-49
2022/08/28 09:11:30;;;;;;;2.00;1.80;;;22.60;99.90;;;;;;5032301;28;20049;-50
2022/08/28 09:14:11;;;;;;;2.67;2.28;;;22.40;99.90;;;;;;5038937;28;20087;-49
2022/08/28 09:16:41;;;;;;;2.20;2.00;;;22.20;99.90;;;;;;5039600;28;20043;-52
2022/08/28 09:19:13;;;;;;;1.83;1.73;;;22.00;99.90;;;;;;5052425;28;20603;-49
2022/08/28 09:21:42;;;;;;;1.83;1.73;;;22.00;99.90;;;;;;5051574;28;20044;-49
2022/08/28 09:24:19;;;;;;;2.55;1.65;;;22.10;99.90;;;;;;5050742;28;20554;-51
2022/08/28 09:26:52;;;;;;;2.22;2.03;;;22.20;99.90;;;;;;5052630;28;20524;-49
2022/08/28 09:29:28;;;;;;;2.25;2.05;;;22.30;99.90;;;;;;5051054;28;20120;-51
2022/08/28 09:31:55;;;;;;;2.05;1.85;;;22.20;99.90;;;;;;5051791;28;20551;-50
2022/08/28 09:34:27;;;;;;;2.70;2.22;;;22.20;99.90;;;;;;5042932;28;20052;-49
2022/08/28 09:36:56;;;;;;;2.20;2.00;;;22.20;99.90;;;;;;5051750;28;20048;-50
2022/08/28 09:39:27;;;;;;;2.40;2.05;;;22.20;99.90;;;;;;5049894;28;20048;-49
2022/08/28 09:45:17;;;;;;;1.70;1.60;;;22.00;99.90;;;;;;5049341;23;20052;-51
2022/08/28 09:47:54;;;;;;;2.25;1.92;;;22.10;99.90;;;;;;5009985;28;20415;-49
2022/08/28 09:50:36;;;;;;;2.45;1.67;;;22.30;99.90;;;;;;5028684;28;20053;-50
2022/08/28 09:53:08;;;;;;;2.67;1.75;;;22.50;99.90;;;;;;5034730;28;20036;-50
2022/08/28 09:55:49;;;;;;;3.15;1.85;;;22.50;99.90;;;;;;5021441;28;20532;-49
2022/08/28 09:58:19;;;;;;;3.60;1.75;;;22.60;99.90;;;;;;5017613;28;20510;-53
2022/08/28 10:00:55;;;;;;;1.75;1.50;;;22.70;99.90;;;;;;5030379;28;20053;-48
2022/08/28 10:04:03;;;;;;;1.60;1.50;;;22.80;99.90;;;;;;5026691;28;20103;-54
2022/08/28 10:06:35;;;;;;;1.90;1.40;;;22.90;99.90;;;;;;4947450;29;20065;-49
2022/08/28 10:09:59;;;;;;;2.03;1.60;;;22.90;99.90;;;;;;5012924;28;20050;-50
2022/08/28 10:12:36;;;;;;;1.70;1.60;;;22.90;99.90;;;;;;4987192;28;20050;-50
2022/08/28 10:15:22;;;;;;;2.10;1.90;;;22.80;99.90;;;;;;4985129;28;20046;-51
2022/08/28 10:18:26;;;;;;;3.22;2.10;;;22.50;99.90;;;;;;5019187;28;20061;-52
2022/08/28 10:21:18;;;;;;;2.38;2.00;;;22.30;99.90;;;;;;5027820;28;20378;-50
2022/08/28 10:24:08;;;;;;;2.75;2.55;;;22.00;99.90;;;;;;5025827;28;20406;-50
2022/08/28 10:26:50;;;;;;;3.03;2.25;;;21.90;99.90;;;;;;5023058;28;20037;-50
2022/08/28 10:29:37;;;;;;;3.10;2.20;;;21.80;99.90;;;;;;5027485;28;20067;-49
2022/08/28 10:32:26;;;;;;;3.08;2.63;;;21.80;99.90;;;;;;5029296;28;20486;-49
2022/08/28 10:35:04;;;;;;;4.88;2.53;;;21.90;99.90;;;;;;5021623;28;20038;-49
2022/08/28 10:38:02;;;;;;;4.47;2.58;;;21.90;99.90;;;;;;5011249;28;20038;-51
2022/08/28 10:40:35;;;;;;;6.15;2.53;;;22.10;99.90;;;;;;4972390;28;20053;-49
2022/08/28 10:43:20;;;;;;;3.08;2.50;;;22.20;99.90;;;;;;5031434;28;20048;-50
2022/08/28 10:45:48;;;;;;;6.45;3.33;;;22.20;99.90;;;;;;5030076;28;20045;-50
2022/08/28 10:48:25;;;;;;;5.45;2.40;;;22.10;99.90;;;;;;5022288;28;20046;-49
2022/08/28 10:50:58;;;;;;;;;;;22.00;99.90;;;;;;5026484;28;20034;-50
2022/08/28 10:53:40;;;;;;;4.50;2.45;;;22.10;99.90;;;;;;5027843;28;19967;-50
2022/08/28 10:56:13;;;;;;;3.40;2.70;;;22.30;99.90;;;;;;5022939;28;20042;-49
2022/08/28 10:58:40;;;;;;;3.67;2.60;;;22.40;99.90;;;;;;5031181;28;20048;-50
2022/08/28 11:01:13;;;;;;;3.60;2.17;;;22.50;99.90;;;;;;5030173;28;20045;-52
2022/08/28 11:03:50;;;;;;;3.40;2.50;;;22.60;99.90;;;;;;5029422;28;20037;-52
2022/08/28 11:06:29;;;;;;;2.23;2.03;;;22.60;99.90;;;;;;5023854;28;20049;-50
2022/08/28 11:08:59;;;;;;;2.75;1.80;;;22.60;99.90;;;;;;5032593;28;20045;-50
2022/08/28 11:11:45;;;;;;;2.00;1.80;;;22.50;99.90;;;;;;5035288;28;20382;-50
2022/08/28 11:14:24;;;;;;;1.95;1.40;;;22.50;99.90;;;;;;5032186;28;20049;-50
2022/08/28 11:16:55;;;;;;;2.08;1.80;;;22.40;99.90;;;;;;5034833;28;20049;-50
2022/08/28 11:19:37;;;;;;;1.88;1.63;;;22.40;99.90;;;;;;5034888;28;20120;-53
2022/08/28 11:22:16;;;;;;;9.98;3.67;;;22.20;99.90;;;;;;5034999;28;20049;-53
2022/08/28 11:24:59;;;;;;;8.25;4.05;;;21.50;99.90;;;;;;5033172;28;20037;-49
2022/08/28 11:27:35;;;;;;;5.55;3.70;;;20.90;99.90;;;;;;5033474;28;20074;-51
2022/08/28 11:30:07;;;;;;;5.20;2.80;;;20.40;99.90;;;;;;5033775;28;20042;-49
2022/08/28 11:32:36;;;;;;;4.13;3.05;;;20.10;99.90;;;;;;5028978;28;20733;-52
2022/08/28 11:35:21;;;;;;;4.22;2.78;;;19.80;99.90;;;;;;5030052;28;20049;-52
2022/08/28 11:37:56;;;;;;;5.55;3.10;;;19.70;99.90;;;;;;5028702;28;20033;-49
2022/08/28 11:40:29;;;;;;;4.97;2.72;;;19.60;99.90;;;;;;5031180;28;20049;-50
2022/08/28 11:43:14;;;;;;;3.08;2.40;;;19.50;99.90;;;;;;5029595;28;20042;-49
2022/08/28 11:45:42;;;;;;;2.83;2.53;;;19.60;99.90;;;;;;5031807;28;20556;-49
2022/08/28 11:48:35;;;;;;;5.57;2.78;;;19.50;99.90;;;;;;5031560;28;20041;-51
2022/08/28 11:51:28;;;;;;;3.17;2.58;;;19.60;99.90;;;;;;5029378;28;20048;-50
2022/08/28 11:54:22;;;;;;;4.20;2.72;;;19.40;99.90;;;;;;5029709;28;20061;-49
2022/08/28 11:57:14;;;;;;;4.28;3.10;;;19.30;99.90;;;;;;5029234;28;20077;-52
2022/08/28 11:59:54;;;;;;;5.13;3.38;;;19.30;99.90;;;;;;5030178;28;20050;-49
2022/08/28 12:02:39;;;;;;;4.63;3.05;;;19.20;99.90;;;;;;5033414;28;20067;-50
2022/08/28 12:05:16;;;;;;;4.88;3.55;;;19.20;99.90;;;;;;5031584;28;20052;-50
2022/08/28 12:07:46;;;;;;;5.60;3.83;;;19.10;99.90;;;;;;5033933;28;20049;-50
2022/08/28 12:10:19;;;;;;;5.88;3.40;;;19.10;99.90;;;;;;5033874;28;20053;-51
2022/08/28 12:12:46;;;;;;;5.45;3.10;;;19.10;99.90;;;;;;5032772;28;20053;-51
2022/08/28 12:15:28;;;;;;;4.93;3.15;;;19.10;99.90;;;;;;5028338;28;20068;-50
2022/08/28 12:17:59;;;;;;;5.63;3.60;;;19.10;99.90;;;;;;5033852;28;20080;-49
2022/08/28 12:20:44;;;;;;;4.78;3.88;;;19.00;99.90;;;;;;5033120;28;20506;-50
2022/08/28 12:23:36;;;;;;;9.35;3.80;;;18.90;99.90;;;;;;5032259;28;20417;-52
2022/08/28 12:26:34;;;;;;;6.47;3.78;;;18.80;99.90;;;;;;5011223;28;20053;-53
2022/08/28 12:29:23;;;;;;;4.35;3.60;;;18.80;99.90;;;;;;5029567;28;20091;-52
2022/08/28 12:32:17;;;;;;;7.57;4.15;;;18.80;99.90;;;;;;5021245;28;20072;-49
2022/08/28 12:34:56;;;;;;;8.23;3.50;;;18.70;99.90;;;;;;5026208;28;20034;-50
2022/08/28 12:37:57;;;;;;;10.02;4.82;;;18.70;99.90;;;;;;5026321;28;20048;-49
2022/08/28 12:40:49;;;;;;;7.10;5.00;;;18.50;99.90;;;;;;5026819;28;20162;-49
2022/08/28 12:43:42;;;;;;;10.02;4.78;;;18.40;99.90;;;;;;5019957;28;20099;-48
2022/08/28 12:46:37;;;;;;;8.27;5.00;;;18.40;99.90;;;;;;5022187;28;20056;-50
2022/08/28 12:49:25;;;;;;;7.25;5.00;;;18.40;99.90;;;;;;5026685;28;20084;-49
2022/08/28 12:52:16;;;;;;;10.57;5.28;;;18.40;99.90;;;;;;5031887;28;20038;-50
2022/08/28 12:54:45;;;;;;;8.43;5.18;;;18.40;99.90;;;;;;5031874;28;20037;-49
2022/08/28 12:57:16;;;;;;;9.07;5.82;;;18.50;99.90;;;;;;5026280;28;20048;-48
2022/08/28 12:59:46;;;;;;;9.68;5.00;;;18.60;99.90;;;;;;5024807;28;20112;-49
2022/08/28 13:02:26;;;;;;;7.43;4.63;;;18.60;99.90;;;;;;5021145;28;20403;-51
2022/08/28 13:05:02;;;;;;;9.38;5.80;;;18.50;99.90;;;;;;5024433;28;20101;-49
2022/08/28 13:07:33;;;;;;;7.68;4.85;;;18.60;99.90;;;;;;5031689;28;20053;-49
2022/08/28 13:10:20;;;;;;;10.68;5.70;;;18.70;99.90;;;;;;5032429;28;20045;-49
2022/08/28 13:13:02;;;;;;;9.65;5.57;;;18.90;99.90;;;;;;5026148;28;20502;-49
2022/08/28 13:16:05;;;;;;;9.77;6.07;;;18.90;99.90;;;;;;5011851;28;20043;-49
2022/08/28 13:18:39;;;;;;;9.77;6.05;;;18.80;99.90;;;;;;5007879;28;20088;-50
2022/08/28 13:21:18;;;;;;;12.45;6.68;;;18.80;99.90;;;;;;5032657;28;20037;-48
2022/08/28 13:24:20;;;;;;;13.68;7.25;;;18.80;99.90;;;;;;5025926;28;20494;-50
2022/08/28 13:26:59;;;;;;;10.30;6.47;;;18.80;99.90;;;;;;5028485;28;20140;-49